Time;durP1;ratioP1;P1;durP2;ratioP2;P2;SDS_P1;SDS_P2;PMS_P1;PMS_P2;Temp;Humidity;BMP_temperature;BMP_pressure;BME280_temperature;BME280_humidity;BME280_pressure;Samples;Min_cycle;Max_cycle;Signal;HPM_P1;HPM_P2
2021/01/17 00:02:14;;;;;;;35.73;15.03;;;;;;;-3.97;82.29;101523.28;5033831;28;20617;-65
2021/01/17 00:04:39;;;;;;;30.25;15.30;;;;;;;-3.98;82.12;101527.66;5033499;28;20284;-65
2021/01/17 00:07:04;;;;;;;33.70;14.47;;;;;;;-3.96;82.13;101524.97;5034553;28;20033;-65
2021/01/17 00:09:30;;;;;;;36.58;16.20;;;;;;;-3.97;82.24;101513.69;5033711;28;20367;-65
2021/01/17 00:11:55;;;;;;;31.13;13.50;;;;;;;-4.00;82.23;101513.78;5034498;28;20065;-65
2021/01/17 00:14:21;;;;;;;28.27;13.07;;;;;;;-4.01;82.12;101519.91;5034603;28;20049;-65
2021/01/17 00:16:46;;;;;;;29.42;14.57;;;;;;;-4.04;82.41;101514.78;5034305;28;20275;-65
2021/01/17 00:19:11;;;;;;;36.35;15.05;;;;;;;-4.00;82.31;101516.41;5034225;28;20410;-65
2021/01/17 00:21:44;;;;;;;32.38;13.57;;;;;;;-3.92;82.28;101519.59;5033368;28;20041;-65
2021/01/17 00:24:09;;;;;;;36.20;14.05;;;;;;;-3.85;81.66;101515.88;5016930;28;20370;-65
2021/01/17 00:26:36;;;;;;;35.45;16.23;;;;;;;-4.07;81.74;101507.06;5033983;28;20037;-65
2021/01/17 00:29:02;;;;;;;36.08;16.00;;;;;;;-4.18;82.39;101504.81;5034316;28;20608;-65
2021/01/17 00:31:27;;;;;;;38.17;16.70;;;;;;;-4.19;82.61;101499.63;5033252;28;20048;-65
2021/01/17 00:33:53;;;;;;;32.47;15.90;;;;;;;-4.19;82.57;101516.16;5034021;28;20116;-65
2021/01/17 00:36:18;;;;;;;36.88;17.63;;;;;;;-4.14;82.62;101503.81;5032931;28;20111;-65
2021/01/17 00:38:43;;;;;;;38.42;17.05;;;;;;;-4.21;82.36;101504.91;5034080;28;20045;-65
2021/01/17 00:41:08;;;;;;;37.00;17.67;;;;;;;-4.20;82.75;101504.00;5034025;28;20045;-65
2021/01/17 00:43:34;;;;;;;33.25;16.25;;;;;;;-4.27;82.67;101500.72;5034017;28;20033;-65
2021/01/17 00:46:02;;;;;;;37.40;16.33;;;;;;;-4.26;82.75;101505.06;5033731;28;20033;-65
2021/01/17 00:48:27;;;;;;;35.38;15.48;;;;;;;-4.27;83.32;101505.09;5033581;28;20531;-65
2021/01/17 00:50:53;;;;;;;33.85;17.05;;;;;;;-4.19;83.34;101497.03;5016446;28;20037;-65
2021/01/17 00:53:18;;;;;;;34.23;14.53;;;;;;;-4.14;83.56;101500.34;5033913;28;20025;-65
2021/01/17 00:55:44;;;;;;;33.80;16.60;;;;;;;-4.16;82.95;101503.00;5033589;28;20295;-65
2021/01/17 00:58:19;;;;;;;35.92;16.40;;;;;;;-4.29;83.30;101486.88;5032605;28;20299;-65
2021/01/17 01:00:45;;;;;;;31.92;15.82;;;;;;;-4.32;83.63;101493.97;5016272;28;20033;-65
2021/01/17 01:03:19;;;;;;;39.53;16.33;;;;;;;-4.22;83.36;101490.16;5032666;28;20041;-65
2021/01/17 01:05:44;;;;;;;30.02;15.57;;;;;;;-4.21;82.78;101488.38;5033248;28;20037;-65
2021/01/17 01:08:10;;;;;;;37.67;17.25;;;;;;;-4.31;83.43;101493.94;5032765;28;20100;-65
2021/01/17 01:10:35;;;;;;;36.55;17.08;;;;;;;-4.25;83.58;101492.88;5031542;28;20374;-65
2021/01/17 01:13:01;;;;;;;39.70;16.77;;;;;;;-4.29;83.77;101493.88;5032645;28;20407;-65
2021/01/17 01:15:26;;;;;;;42.63;17.73;;;;;;;-4.28;83.59;101491.22;5033317;28;20440;-65
2021/01/17 01:17:51;;;;;;;39.90;17.77;;;;;;;-4.33;84.10;101489.63;5033118;28;20033;-65
2021/01/17 01:20:17;;;;;;;35.73;16.40;;;;;;;-4.35;84.01;101483.66;5015896;28;20041;-65
2021/01/17 01:22:43;;;;;;;41.70;17.98;;;;;;;-4.31;84.27;101493.06;5032382;28;20422;-65
2021/01/17 01:25:09;;;;;;;33.05;15.20;;;;;;;-4.29;84.07;101492.09;5033307;28;20414;-65
2021/01/17 01:27:35;;;;;;;33.75;16.42;;;;;;;-4.20;84.32;101487.50;5032919;28;20107;-65
2021/01/17 01:30:00;;;;;;;39.28;18.63;;;;;;;-4.22;84.11;101492.75;5032990;28;20025;-65
2021/01/17 01:32:25;;;;;;;33.83;16.08;;;;;;;-4.15;84.30;101483.00;5033004;28;20436;-65
2021/01/17 01:34:51;;;;;;;37.30;17.58;;;;;;;-4.17;83.87;101488.25;5032196;28;20045;-65
2021/01/17 01:37:16;;;;;;;33.90;15.10;;;;;;;-4.14;83.97;101485.56;5015282;28;20043;-65
2021/01/17 01:39:41;;;;;;;38.03;17.05;;;;;;;-4.10;83.84;101483.69;5032980;28;20469;-65
2021/01/17 01:42:07;;;;;;;35.95;16.75;;;;;;;-3.97;83.82;101484.16;5032946;28;20045;-65
2021/01/17 01:44:33;;;;;;;39.15;16.40;;;;;;;-3.88;83.81;101489.06;5031802;28;20060;-65
2021/01/17 01:46:59;;;;;;;33.03;15.98;;;;;;;-3.74;83.48;101488.59;5031616;28;20033;-65
2021/01/17 01:49:24;;;;;;;41.67;18.13;;;;;;;-3.75;83.27;101482.50;5015374;28;20348;-65
2021/01/17 01:51:50;;;;;;;39.13;16.58;;;;;;;-3.76;83.14;101485.19;5031825;28;20029;-65
2021/01/17 01:54:16;;;;;;;31.92;15.65;;;;;;;-3.77;83.27;101473.00;5031852;28;20107;-65
2021/01/17 01:56:41;;;;;;;31.45;16.63;;;;;;;-3.84;83.07;101488.91;5031400;28;20092;-65
2021/01/17 01:59:06;;;;;;;36.58;17.40;;;;;;;-3.88;83.66;101487.28;5031554;28;20107;-65
2021/01/17 02:01:32;;;;;;;36.83;17.37;;;;;;;-3.76;83.43;101478.19;5032495;28;20041;-65
2021/01/17 02:03:57;;;;;;;41.72;18.05;;;;;;;-3.69;83.11;101491.88;5032433;28;20626;-66
2021/01/17 02:06:25;;;;;;;37.78;16.15;;;;;;;-3.90;83.13;101486.50;5031143;28;20045;-65
2021/01/17 02:09:21;;;;;;;39.33;16.75;;;;;;;-3.89;83.41;101492.56;5031388;28;20041;-65
2021/01/17 02:12:03;;;;;;;36.55;16.77;;;;;;;-3.95;83.21;101490.16;5031330;28;20043;-65
2021/01/17 02:14:38;;;;;;;36.63;16.80;;;;;;;-3.99;83.42;101494.63;5032356;28;20052;-65
2021/01/17 02:17:13;;;;;;;37.63;16.58;;;;;;;-3.95;83.21;101485.78;5032035;28;20048;-65
2021/01/17 02:19:57;;;;;;;43.22;17.15;;;;;;;-3.98;83.30;101493.72;5032224;28;20107;-65
2021/01/17 02:22:23;;;;;;;37.33;17.65;;;;;;;-3.95;83.28;101488.41;5030866;28;20041;-65
2021/01/17 02:24:57;;;;;;;39.35;17.60;;;;;;;-3.88;83.29;101482.06;5031307;28;20123;-65
2021/01/17 02:27:23;;;;;;;34.38;16.35;;;;;;;-3.84;83.26;101483.69;5014567;28;20052;-65
2021/01/17 02:29:50;;;;;;;39.10;16.90;;;;;;;-4.02;83.03;101476.47;5031178;28;20025;-65
2021/01/17 02:32:17;;;;;;;36.83;15.13;;;;;;;-3.96;83.21;101475.41;5031021;28;20382;-65
2021/01/17 02:34:46;;;;;;;34.40;15.63;;;;;;;-3.98;83.45;101480.69;5030782;28;20041;-65
2021/01/17 02:37:30;;;;;;;35.75;15.63;;;;;;;-3.90;83.01;101472.59;5030735;28;20383;-65
2021/01/17 02:40:04;;;;;;;38.10;15.57;;;;;;;-4.07;83.09;101481.00;5031868;28;20037;-65
2021/01/17 02:42:31;;;;;;;36.58;16.25;;;;;;;-4.07;83.12;101474.00;5030956;28;20041;-65
2021/01/17 02:44:57;;;;;;;37.88;16.90;;;;;;;-4.02;83.36;101476.47;5030591;28;20470;-66
2021/01/17 02:47:22;;;;;;;;;;;;;;;-3.93;83.32;101483.16;5031844;28;20041;-65
2021/01/17 02:49:48;;;;;;;40.53;17.55;;;;;;;-4.04;82.83;101479.13;5031678;28;20269;-65
2021/01/17 02:52:13;;;;;;;33.72;15.57;;;;;;;-4.07;83.27;101473.16;5031663;28;20041;-65
2021/01/17 02:54:41;;;;;;;33.55;16.55;;;;;;;-4.21;83.71;101472.75;5031582;28;20068;-65
2021/01/17 02:57:08;;;;;;;37.75;16.45;;;;;;;-4.25;84.09;101472.84;5013636;28;20040;-65
2021/01/17 02:59:41;;;;;;;29.48;14.77;;;;;;;-4.13;84.20;101473.38;5030831;28;20067;-65
2021/01/17 03:02:08;;;;;;;34.45;15.75;;;;;;;-4.09;83.91;101468.00;5030064;28;20037;-65
2021/01/17 03:04:56;;;;;;;31.63;14.27;;;;;;;-4.00;83.55;101464.22;5029923;28;20507;-65
2021/01/17 03:07:23;;;;;;;36.83;16.17;;;;;;;-4.21;83.37;101476.22;5030776;28;20045;-65
2021/01/17 03:09:48;;;;;;;31.73;15.82;;;;;;;-4.16;83.83;101470.88;5029898;28;20040;-72
2021/01/17 03:12:14;;;;;;;34.55;15.60;;;;;;;-4.14;83.53;101466.47;5030634;28;20044;-72
2021/01/17 03:14:40;;;;;;;30.90;14.77;;;;;;;-4.15;83.60;101462.13;5030747;28;20051;-72
2021/01/17 03:17:07;;;;;;;36.63;15.48;;;;;;;-4.19;83.42;101466.59;5030499;28;20421;-72
2021/01/17 03:19:32;;;;;;;30.58;13.98;;;;;;;-4.25;83.29;101462.44;5013764;28;20033;-72
2021/01/17 03:21:58;;;;;;;34.13;15.70;;;;;;;-4.26;83.43;101465.09;5031258;28;20130;-72
2021/01/17 03:24:24;;;;;;;36.83;17.67;;;;;;;-4.29;83.39;101460.81;5031278;28;20048;-72
2021/01/17 03:26:50;;;;;;;37.45;15.95;;;;;;;-4.31;83.39;101462.66;5029785;28;20041;-72
2021/01/17 03:29:15;;;;;;;36.83;14.68;;;;;;;-4.29;83.47;101462.56;5030386;28;20032;-72
2021/01/17 03:31:40;;;;;;;34.92;15.80;;;;;;;-4.29;83.21;101463.41;5030309;28;20041;-72
2021/01/17 03:34:06;;;;;;;37.40;15.70;;;;;;;-4.35;83.45;101458.44;5030596;28;20025;-72
2021/01/17 03:36:31;;;;;;;38.65;16.58;;;;;;;-4.62;84.04;101460.16;5030869;28;20338;-72
2021/01/17 03:38:56;;;;;;;34.83;16.48;;;;;;;-4.62;84.25;101457.53;5030091;28;20075;-72
2021/01/17 03:41:23;;;;;;;33.10;16.50;;;;;;;-4.60;84.58;101460.94;5029822;28;20134;-72
2021/01/17 03:43:48;;;;;;;33.92;15.75;;;;;;;-4.62;84.66;101456.69;5031054;28;20033;-73
2021/01/17 03:46:14;;;;;;;39.88;15.57;;;;;;;-4.57;84.19;101463.44;5030719;28;20029;-72
2021/01/17 03:48:39;;;;;;;35.00;16.70;;;;;;;-4.61;84.24;101471.41;5031094;28;20490;-72
2021/01/17 03:51:04;;;;;;;37.33;16.58;;;;;;;-4.76;84.67;101464.94;5030950;28;20737;-72
2021/01/17 03:53:30;;;;;;;35.05;15.65;;;;;;;-4.69;84.90;101456.88;5030273;28;20053;-72
2021/01/17 03:55:55;;;;;;;37.13;16.73;;;;;;;-4.72;84.61;101462.19;5029585;28;20056;-72
2021/01/17 03:58:21;;;;;;;35.63;15.30;;;;;;;-4.62;84.74;101460.16;5013318;28;20041;-72
2021/01/17 04:00:46;;;;;;;40.20;17.00;;;;;;;-4.58;84.40;101450.50;5029992;28;20044;-72
2021/01/17 04:03:13;;;;;;;37.25;14.88;;;;;;;-4.58;84.64;101453.09;5030002;28;20099;-72
2021/01/17 04:05:39;;;;;;;42.72;17.08;;;;;;;-4.49;84.47;101447.59;5030406;28;20038;-72
2021/01/17 04:08:04;;;;;;;37.88;16.63;;;;;;;-4.44;84.37;101455.25;5029849;28;20041;-72
2021/01/17 04:10:29;;;;;;;33.13;15.25;;;;;;;-4.44;84.14;101455.25;5029581;28;20037;-72
2021/01/17 04:12:55;;;;;;;40.03;15.57;;;;;;;-4.46;84.31;101448.34;5029832;28;20075;-72
2021/01/17 04:15:20;;;;;;;33.38;13.98;;;;;;;-4.38;84.13;101460.25;5013276;28;20080;-72
2021/01/17 04:17:49;;;;;;;33.33;14.50;;;;;;;-4.44;83.89;101453.50;5030513;28;20029;-72
2021/01/17 04:20:15;;;;;;;35.38;15.05;;;;;;;-4.44;84.25;101452.66;5030653;28;20110;-72
2021/01/17 04:22:40;;;;;;;38.80;16.90;;;;;;;-4.72;84.88;101451.75;5030677;28;20037;-72
2021/01/17 04:25:07;;;;;;;37.92;16.25;;;;;;;-4.69;84.98;101443.84;5030562;28;20044;-72
2021/01/17 04:27:32;;;;;;;;;;;;;;;-4.66;84.94;101440.28;5030678;28;20036;-72
2021/01/17 04:29:57;;;;;;;39.65;16.33;;;;;;;-4.72;85.20;101441.34;5029729;28;19916;-72
2021/01/17 04:32:23;;;;;;;38.38;15.57;;;;;;;-4.72;85.29;101441.34;5030643;28;20037;-72
2021/01/17 04:34:49;;;;;;;38.15;16.33;;;;;;;-4.74;85.36;101450.97;5029571;28;20049;-72
2021/01/17 04:37:19;;;;;;;36.38;16.13;;;;;;;-4.69;85.26;101448.22;5030265;28;20041;-72
2021/01/17 04:39:44;;;;;;;34.80;15.52;;;;;;;-4.68;85.20;101450.78;5030265;28;20033;-72
2021/01/17 04:42:15;;;;;;;37.60;16.63;;;;;;;-4.64;85.18;101455.88;5030538;28;20040;-72
2021/01/17 04:44:48;;;;;;;40.05;19.88;;;;;;;-4.69;84.77;101456.88;5030377;28;20041;-72
2021/01/17 04:47:16;;;;;;;39.10;17.42;;;;;;;-4.64;84.93;101458.50;5033024;28;20053;-72
2021/01/17 04:49:44;;;;;;;43.55;17.80;;;;;;;-4.69;85.03;101456.03;5033850;28;20033;-73
2021/01/17 04:52:13;;;;;;;40.85;18.23;;;;;;;-4.66;84.99;101453.31;5016420;28;20375;-72
2021/01/17 04:54:39;;;;;;;39.90;17.30;;;;;;;-4.65;84.95;101455.03;5032912;28;20444;-72
2021/01/17 04:57:15;;;;;;;45.03;17.55;;;;;;;-4.65;84.98;101452.44;5032578;28;20037;-72
2021/01/17 04:59:46;;;;;;;41.50;18.10;;;;;;;-4.72;85.04;101450.91;5032873;28;20491;-72
2021/01/17 05:02:24;;;;;;;42.42;17.48;;;;;;;-4.71;84.86;101453.44;5016294;28;20041;-72
2021/01/17 05:05:06;;;;;;;37.00;16.90;;;;;;;-4.71;84.97;101453.44;5032628;28;20107;-72
2021/01/17 05:07:36;;;;;;;38.53;17.33;;;;;;;-4.69;84.91;101445.59;5033455;28;20037;-72
2021/01/17 05:10:10;;;;;;;42.13;17.48;;;;;;;-4.69;84.97;101445.59;5033634;28;20025;-72
2021/01/17 05:12:49;;;;;;;40.70;17.35;;;;;;;-4.61;84.94;101453.16;5016334;28;20056;-72
2021/01/17 05:15:19;;;;;;;42.58;18.02;;;;;;;-4.72;84.65;101456.97;5032286;28;20119;-65
2021/01/17 05:17:44;;;;;;;38.55;18.17;;;;;;;-4.82;85.21;101462.50;5033150;28;20045;-65
2021/01/17 05:20:10;;;;;;;41.55;18.58;;;;;;;-4.81;85.19;101461.63;5032429;28;20052;-65
2021/01/17 05:22:36;;;;;;;37.85;17.23;;;;;;;-4.81;84.99;101462.47;5033330;28;20033;-65
2021/01/17 05:25:07;;;;;;;39.95;18.95;;;;;;;-4.78;84.94;101458.91;5033312;28;20037;-65
2021/01/17 05:27:33;;;;;;;40.60;16.48;;;;;;;-4.76;84.99;101465.78;5031816;28;20394;-65
2021/01/17 05:29:59;;;;;;;42.83;17.13;;;;;;;-4.74;84.83;101469.19;5033284;28;20030;-65
2021/01/17 05:32:25;;;;;;;39.30;18.30;;;;;;;-4.74;84.66;101474.41;5032330;28;20029;-65
2021/01/17 05:34:52;;;;;;;41.22;17.77;;;;;;;-4.68;84.90;101476.00;5015618;28;20451;-65
2021/01/17 05:37:17;;;;;;;43.03;17.17;;;;;;;-4.68;84.23;101479.44;5032172;28;20759;-65
2021/01/17 05:39:55;;;;;;;44.20;18.80;;;;;;;-4.87;84.70;101478.28;5032281;28;20037;-65
2021/01/17 05:42:25;;;;;;;43.78;18.77;;;;;;;-4.92;84.96;101468.03;5032926;28;20568;-65
2021/01/17 05:44:53;;;;;;;40.95;17.63;;;;;;;-4.84;85.11;101472.16;5032183;28;20048;-65
2021/01/17 05:47:23;;;;;;;47.17;18.88;;;;;;;-4.82;85.14;101468.59;5032651;28;20033;-65
2021/01/17 05:49:51;;;;;;;46.67;17.35;;;;;;;-4.85;85.33;101465.22;5032007;28;20037;-65
2021/01/17 05:52:18;;;;;;;47.50;19.15;;;;;;;-4.73;85.14;101476.13;5032887;28;20041;-65
2021/01/17 05:54:49;;;;;;;40.53;19.63;;;;;;;-4.81;84.97;101472.88;5015116;28;20490;-65
2021/01/17 05:57:23;;;;;;;50.42;20.92;;;;;;;-4.77;85.16;101484.09;5031995;28;20044;-65
2021/01/17 05:59:49;;;;;;;49.13;18.83;;;;;;;-4.72;85.16;101477.81;5032741;28;20120;-65
2021/01/17 06:02:19;;;;;;;;;;;;;;;-4.70;84.99;101483.84;5033191;28;20045;-65
2021/01/17 06:04:49;;;;;;;47.80;19.35;;;;;;;-4.72;84.91;101488.25;5032532;28;20525;-65
2021/01/17 06:07:21;;;;;;;51.70;21.17;;;;;;;-4.66;84.71;101484.59;5032252;28;20025;-65
2021/01/17 06:09:47;;;;;;;37.05;18.42;;;;;;;-4.60;84.62;101486.16;5032494;28;20025;-65
2021/01/17 06:12:13;;;;;;;50.85;18.00;;;;;;;-4.80;84.66;101487.63;5031554;28;20429;-65
2021/01/17 06:14:38;;;;;;;43.80;17.55;;;;;;;-4.88;85.41;101482.63;5031603;28;20044;-65
2021/01/17 06:17:05;;;;;;;50.88;18.23;;;;;;;-4.83;84.96;101492.06;5031191;28;20156;-65
2021/01/17 06:19:38;;;;;;;47.47;20.25;;;;;;;-4.90;85.35;101480.97;5031406;28;20104;-65
2021/01/17 06:22:06;;;;;;;48.35;19.77;;;;;;;-4.88;85.58;101479.19;5032190;28;20037;-65
2021/01/17 06:24:39;;;;;;;46.53;20.08;;;;;;;-4.92;85.63;101487.97;5031295;28;20052;-65
2021/01/17 06:27:06;;;;;;;51.78;21.25;;;;;;;-4.89;85.60;101495.72;5030562;28;20505;-64
2021/01/17 06:29:42;;;;;;;52.60;21.35;;;;;;;-4.89;85.64;101498.31;5030929;28;20029;-65
2021/01/17 06:32:11;;;;;;;49.80;22.08;;;;;;;-4.90;85.43;101494.00;5030916;28;20477;-65
2021/01/17 06:34:42;;;;;;;47.13;20.20;;;;;;;-4.92;85.59;101495.78;5031083;28;20091;-65
2021/01/17 06:37:11;;;;;;;50.35;18.63;;;;;;;-4.90;85.49;101494.00;5031301;28;20076;-64
2021/01/17 06:39:41;;;;;;;48.67;21.90;;;;;;;-4.95;85.38;101509.75;5031438;28;20075;-64
2021/01/17 06:42:10;;;;;;;56.28;21.35;;;;;;;-4.88;85.46;101497.41;5031447;28;20037;-64
2021/01/17 06:44:36;;;;;;;43.20;19.65;;;;;;;-4.87;85.54;101499.09;5031293;28;20060;-64
2021/01/17 06:47:02;;;;;;;55.85;21.45;;;;;;;-4.93;85.68;101496.69;5030136;28;20075;-65
2021/01/17 06:49:30;;;;;;;50.05;20.52;;;;;;;-4.96;85.51;101504.63;5031223;28;20057;-64
2021/01/17 06:51:57;;;;;;;53.05;21.90;;;;;;;-4.93;85.67;101499.31;5031290;28;20362;-65
2021/01/17 06:54:32;;;;;;;49.17;20.77;;;;;;;-4.94;85.76;101501.06;5031318;28;20033;-64
2021/01/17 06:56:59;;;;;;;53.88;22.35;;;;;;;-4.94;85.93;101513.22;5030801;28;20474;-64
2021/01/17 06:59:32;;;;;;;64.28;20.33;;;;;;;-4.97;86.06;101514.16;5030943;28;20052;-65
2021/01/17 07:02:24;;;;;;;48.63;20.30;;;;;;;-4.92;85.61;101517.50;5031344;28;20033;-65
2021/01/17 07:04:52;;;;;;;50.42;21.98;;;;;;;-4.83;86.49;101516.38;5030522;28;20037;-64
2021/01/17 07:07:41;;;;;;;53.10;21.40;;;;;;;-4.74;85.51;101515.25;5031330;28;20037;-64
2021/01/17 07:10:08;;;;;;;54.15;22.30;;;;;;;-4.83;85.42;101521.56;5029951;28;20044;-64
2021/01/17 07:12:55;;;;;;;51.33;21.70;;;;;;;-4.85;85.34;101523.38;5031450;28;20037;-64
2021/01/17 07:15:35;;;;;;;51.33;22.40;;;;;;;-4.81;85.48;101518.94;5031309;28;20041;-64
2021/01/17 07:18:13;;;;;;;53.05;22.30;;;;;;;-4.79;85.78;101524.97;5030161;28;20112;-65
2021/01/17 07:20:42;;;;;;;48.58;20.73;;;;;;;-4.79;85.72;101523.19;5030408;28;20088;-64
2021/01/17 07:23:09;;;;;;;53.28;21.58;;;;;;;-4.74;85.73;101531.72;5031376;28;20052;-64
2021/01/17 07:25:36;;;;;;;54.70;22.08;;;;;;;-4.76;85.73;101525.69;5030359;28;20707;-64
2021/01/17 07:28:12;;;;;;;53.78;20.80;;;;;;;-4.71;85.67;101523.81;5029434;28;20029;-64
2021/01/17 07:30:49;;;;;;;44.63;20.33;;;;;;;-4.75;85.48;101530.03;5030889;28;20041;-64
2021/01/17 07:33:25;;;;;;;50.47;20.60;;;;;;;-4.73;85.48;101527.34;5031097;28;20347;-64
2021/01/17 07:35:53;;;;;;;49.90;22.10;;;;;;;-4.83;85.57;101526.78;5029794;28;20352;-64
2021/01/17 07:38:20;;;;;;;47.33;18.80;;;;;;;-4.78;85.66;101529.25;5013634;28;20041;-64
2021/01/17 07:41:00;;;;;;;56.38;23.70;;;;;;;-4.77;85.46;101528.38;5030887;28;20175;-64
2021/01/17 07:43:57;;;;;;;53.65;20.92;;;;;;;-4.83;85.61;101537.19;5013636;28;20102;-64
2021/01/17 07:46:22;;;;;;;53.55;20.90;;;;;;;-4.79;85.55;101535.38;5030439;28;20110;-64
2021/01/17 07:48:48;;;;;;;48.22;20.05;;;;;;;-4.85;85.50;101544.19;5030985;28;20034;-64
2021/01/17 07:51:15;;;;;;;56.88;21.73;;;;;;;-4.85;85.78;101546.81;5029600;28;20042;-64
2021/01/17 07:54:03;;;;;;;48.88;18.48;;;;;;;-4.82;85.92;101543.25;5030816;28;20037;-64
2021/01/17 07:56:31;;;;;;;47.85;21.17;;;;;;;-4.87;85.74;101538.19;5029547;28;20048;-64
2021/01/17 07:58:59;;;;;;;57.45;22.67;;;;;;;-4.84;85.83;101540.72;5030726;28;20444;-64
2021/01/17 08:01:30;;;;;;;50.95;20.10;;;;;;;-4.75;85.74;101545.66;5013293;28;20102;-64
2021/01/17 08:04:02;;;;;;;52.47;20.63;;;;;;;-4.63;85.47;101548.81;5029834;28;20045;-64
2021/01/17 08:06:36;;;;;;;53.88;23.10;;;;;;;-4.75;85.37;101550.88;5028842;28;20075;-64
2021/01/17 08:09:18;;;;;;;52.92;22.30;;;;;;;-4.62;85.37;101546.13;5029385;28;20030;-64
2021/01/17 08:11:57;;;;;;;53.15;20.65;;;;;;;-4.55;85.41;101549.41;5030174;28;20106;-64
2021/01/17 08:14:35;;;;;;;52.05;21.20;;;;;;;-4.55;85.03;101554.63;5030167;28;20374;-64
2021/01/17 08:17:15;;;;;;;47.95;19.38;;;;;;;-4.74;85.29;101549.97;5012691;28;20075;-64
2021/01/17 08:19:53;;;;;;;50.45;21.02;;;;;;;-4.64;85.36;101567.94;5031126;28;20029;-64
2021/01/17 08:22:18;;;;;;;47.37;19.33;;;;;;;-4.43;84.85;101569.91;5034117;28;20041;-64
2021/01/17 08:24:54;;;;;;;40.10;18.93;;;;;;;-4.51;84.63;101570.13;5033841;28;20063;-64
2021/01/17 08:27:32;;;;;;;41.50;18.45;;;;;;;-4.57;84.65;101577.28;5032621;28;20276;-64
2021/01/17 08:30:00;;;;;;;47.08;19.50;;;;;;;-4.54;84.61;101579.78;5033899;28;20029;-64
2021/01/17 08:32:34;;;;;;;45.90;18.27;;;;;;;-4.41;84.48;101583.75;5033844;28;20065;-64
2021/01/17 08:37:50;;;;;;;39.40;18.65;;;;;;;-4.21;83.27;101587.47;5033328;28;20060;-64
2021/01/17 08:40:28;;;;;;;44.85;17.15;;;;;;;-4.00;82.96;101586.84;5033619;28;20037;-64
2021/01/17 08:42:55;;;;;;;48.10;18.88;;;;;;;-4.13;82.19;101585.50;5032728;28;20137;-64
2021/01/17 08:45:20;;;;;;;47.22;19.45;;;;;;;-4.19;82.97;101593.50;5033556;28;20463;-64
2021/01/17 08:47:48;;;;;;;45.87;20.90;;;;;;;-4.16;82.80;101599.50;5032282;28;20030;-64
2021/01/17 08:50:33;;;;;;;38.03;16.40;;;;;;;-3.82;81.46;101601.91;5032548;28;20414;-64
2021/01/17 08:53:35;;;;;;;42.30;17.60;;;;;;;-3.71;81.02;101604.16;5033552;28;20124;-64
2021/01/17 08:56:19;;;;;;;44.65;17.88;;;;;;;-3.60;81.02;101606.41;5032695;28;20056;-64
2021/01/17 08:58:48;;;;;;;48.63;18.55;;;;;;;-3.69;80.50;101609.31;5033353;28;20128;-64
2021/01/17 09:01:15;;;;;;;40.03;17.38;;;;;;;-3.35;80.45;101609.03;5033587;28;20049;-64
2021/01/17 09:03:43;;;;;;;41.33;17.60;;;;;;;-3.60;79.68;101616.84;5032467;28;20033;-64
2021/01/17 09:06:11;;;;;;;35.97;16.77;;;;;;;-3.64;80.94;101615.25;5033006;28;20033;-64
2021/01/17 09:08:39;;;;;;;49.58;20.15;;;;;;;-3.35;79.96;101610.81;5033330;28;20128;-64
2021/01/17 09:11:29;;;;;;;40.22;19.02;;;;;;;-2.85;78.52;101618.66;5032176;28;20065;-64
2021/01/17 09:14:25;;;;;;;40.38;18.85;;;;;;;-2.45;76.59;101619.78;5033162;28;20042;-64
2021/01/17 09:16:56;;;;;;;36.95;17.90;;;;;;;-1.95;74.73;101630.06;5031194;28;20489;-64
2021/01/17 09:19:30;;;;;;;30.80;15.13;;;;;;;-0.94;73.58;101615.38;5032076;28;20063;-64
2021/01/17 09:21:59;;;;;;;42.65;16.65;;;;;;;-1.22;72.67;101630.59;5032851;28;20033;-64
2021/01/17 09:24:27;;;;;;;36.38;16.45;;;;;;;-1.23;72.83;101626.28;5031899;28;20141;-64
2021/01/17 09:26:57;;;;;;;37.47;16.25;;;;;;;-1.73;74.71;101630.94;5031985;28;20184;-64
2021/01/17 09:29:33;;;;;;;36.20;16.15;;;;;;;-1.38;73.78;101639.13;5032965;28;20045;-64
2021/01/17 09:32:01;;;;;;;38.90;17.83;;;;;;;-1.27;72.98;101641.25;5032119;28;20124;-64
2021/01/17 09:34:29;;;;;;;37.35;17.98;;;;;;;-1.24;73.22;101640.28;5031580;28;20323;-64
2021/01/17 09:36:56;;;;;;;34.70;18.20;;;;;;;-1.66;73.60;101656.84;5032269;28;20041;-64
2021/01/17 09:39:35;;;;;;;35.78;16.65;;;;;;;-1.04;73.25;101649.94;5014744;28;20182;-64
2021/01/17 09:42:02;;;;;;;37.75;17.83;;;;;;;-1.26;72.80;101650.84;5032357;28;20049;-64
2021/01/17 09:44:29;;;;;;;40.08;17.75;;;;;;;-2.01;74.75;101653.88;5031475;28;20076;-64
2021/01/17 09:46:55;;;;;;;43.97;18.70;;;;;;;-1.99;74.63;101660.75;5032131;28;20086;-64
2021/01/17 09:49:23;;;;;;;38.20;18.40;;;;;;;-2.02;76.18;101667.88;5032235;28;20041;-64
2021/01/17 09:51:48;;;;;;;43.20;19.25;;;;;;;-2.33;76.19;101661.19;5032122;28;20037;-64
2021/01/17 09:54:14;;;;;;;35.33;17.20;;;;;;;-2.10;76.17;101669.94;5032050;28;20110;-64
2021/01/17 09:56:43;;;;;;;38.97;18.60;;;;;;;-1.92;75.59;101671.81;5030983;28;20088;-64
2021/01/17 09:59:22;;;;;;;39.13;17.58;;;;;;;-2.16;76.32;101673.63;5030895;28;20076;-64
2021/01/17 10:01:48;;;;;;;40.70;18.55;;;;;;;-1.93;74.97;101670.13;5031214;28;20055;-64
2021/01/17 10:04:28;;;;;;;41.65;17.05;;;;;;;-1.05;72.80;101670.06;5031210;28;20068;-64
2021/01/17 10:06:57;;;;;;;38.00;16.60;;;;;;;-1.16;73.20;101672.28;5031512;28;20029;-64
2021/01/17 10:09:25;;;;;;;37.92;17.95;;;;;;;-1.19;71.79;101677.66;5031928;28;20037;-64
2021/01/17 10:11:58;;;;;;;33.65;16.08;;;;;;;-1.19;72.08;101677.66;5014442;28;20463;-64
2021/01/17 10:14:26;;;;;;;35.80;16.60;;;;;;;-1.35;72.36;101683.50;5031803;28;20455;-64
2021/01/17 10:16:53;;;;;;;38.53;17.30;;;;;;;-1.39;72.50;101684.53;5031590;28;20052;-64
2021/01/17 10:19:39;;;;;;;37.00;17.63;;;;;;;-0.99;72.04;101680.25;5031498;28;20076;-64
2021/01/17 10:22:05;;;;;;;35.70;15.68;;;;;;;-0.78;70.65;101682.88;5031825;28;20069;-64
2021/01/17 10:24:32;;;;;;;36.80;16.58;;;;;;;-0.83;70.58;101677.00;5030742;28;20083;-65
2021/01/17 10:27:00;;;;;;;40.42;16.30;;;;;;;-1.67;73.81;101679.56;5013956;28;20056;-64
2021/01/17 10:29:30;;;;;;;34.13;15.85;;;;;;;-1.34;71.97;101682.59;5031574;28;20037;-64
2021/01/17 10:32:07;;;;;;;36.35;17.52;;;;;;;-1.51;73.91;101678.03;5031469;28;20052;-64
2021/01/17 10:34:34;;;;;;;35.20;16.50;;;;;;;-1.40;73.01;101687.25;5030338;28;20045;-64
2021/01/17 10:37:05;;;;;;;35.88;16.60;;;;;;;-1.64;74.46;101683.81;5031060;28;20034;-64
2021/01/17 10:39:32;;;;;;;38.30;18.20;;;;;;;-1.15;71.76;101676.59;5030258;28;20033;-64
2021/01/17 10:42:03;;;;;;;42.58;19.27;;;;;;;-1.41;72.48;101678.50;5031342;28;20068;-64
2021/01/17 10:44:31;;;;;;;35.63;17.67;;;;;;;-1.28;72.75;101668.41;5029990;28;20072;-64
2021/01/17 10:47:19;;;;;;;40.15;18.60;;;;;;;-1.12;71.91;101674.69;5031198;28;20194;-64
2021/01/17 10:49:45;;;;;;;38.97;18.42;;;;;;;-1.12;72.65;101668.63;5030185;28;20041;-64
2021/01/17 10:52:19;;;;;;;39.05;18.23;;;;;;;-0.43;70.21;101665.59;5030270;28;20120;-64
2021/01/17 10:54:46;;;;;;;34.55;18.48;;;;;;;-0.73;70.37;101680.91;5029979;28;20068;-64
2021/01/17 10:57:13;;;;;;;39.60;18.42;;;;;;;-1.23;71.72;101671.66;5030827;28;20041;-65
2021/01/17 10:59:39;;;;;;;38.47;19.30;;;;;;;-0.75;70.67;101674.88;5029943;28;20045;-65
2021/01/17 11:02:04;;;;;;;;;;;;;;;-1.28;72.72;101674.47;5014024;28;20418;-65
2021/01/17 11:04:40;;;;;;;36.15;18.33;;;;;;;-1.21;72.98;101661.13;5030688;28;19923;-65
2021/01/17 11:07:06;;;;;;;37.15;18.13;;;;;;;-0.87;71.21;101674.50;5029207;28;20033;-64
2021/01/17 11:09:32;;;;;;;;;;;;;;;-0.87;71.66;101671.00;5031272;28;20037;-65
2021/01/17 11:11:57;;;;;;;38.10;17.15;;;;;;;-0.73;70.97;101666.00;5029866;28;19912;-64
2021/01/17 11:14:27;;;;;;;37.53;17.43;;;;;;;-0.06;68.96;101664.75;5030875;28;20505;-64
2021/01/17 11:16:54;;;;;;;37.63;17.50;;;;;;;-0.69;70.10;101672.00;5030520;28;20119;-65
2021/01/17 11:19:32;;;;;;;35.05;18.63;;;;;;;-0.88;71.14;101672.78;5029655;28;20134;-65
2021/01/17 11:21:58;;;;;;;36.60;20.55;;;;;;;-0.29;68.78;101662.34;5013058;28;20073;-65
2021/01/17 11:24:32;;;;;;;37.83;19.38;;;;;;;-0.41;68.71;101666.38;5030767;28;20087;-64
2021/01/17 11:27:32;;;;;;;37.40;18.25;;;;;;;0.05;67.52;101664.25;5030412;28;20243;-65